sensor_id;sensor_type;location;lat;lon;timestamp;P1;durP1;ratioP1;P2;durP2;ratioP2
16800;SDS011;8518;53.236;10.384;2022-11-23T00:01:47;26.83;;;18.47;;
16800;SDS011;8518;53.236;10.384;2022-11-23T00:04:13;29.03;;;19.00;;
16800;SDS011;8518;53.236;10.384;2022-11-23T00:06:38;26.27;;;18.30;;
16800;SDS011;8518;53.236;10.384;2022-11-23T00:09:04;26.80;;;17.53;;
16800;SDS011;8518;53.236;10.384;2022-11-23T00:11:32;28.57;;;17.73;;
16800;SDS011;8518;53.236;10.384;2022-11-23T00:13:58;25.67;;;18.23;;
16800;SDS011;8518;53.236;10.384;2022-11-23T00:16:25;28.67;;;17.70;;
16800;SDS011;8518;53.236;10.384;2022-11-23T00:18:53;25.47;;;17.60;;
16800;SDS011;8518;53.236;10.384;2022-11-23T00:21:20;26.93;;;17.10;;
16800;SDS011;8518;53.236;10.384;2022-11-23T00:23:47;27.17;;;18.13;;
16800;SDS011;8518;53.236;10.384;2022-11-23T00:26:13;24.57;;;16.93;;
16800;SDS011;8518;53.236;10.384;2022-11-23T00:28:39;25.07;;;17.30;;
16800;SDS011;8518;53.236;10.384;2022-11-23T00:31:06;25.30;;;17.73;;
16800;SDS011;8518;53.236;10.384;2022-11-23T00:33:37;26.13;;;17.40;;
16800;SDS011;8518;53.236;10.384;2022-11-23T00:36:05;24.23;;;17.43;;
16800;SDS011;8518;53.236;10.384;2022-11-23T00:38:41;25.43;;;16.40;;
16800;SDS011;8518;53.236;10.384;2022-11-23T00:41:08;28.73;;;17.97;;
16800;SDS011;8518;53.236;10.384;2022-11-23T00:43:36;23.23;;;16.30;;
16800;SDS011;8518;53.236;10.384;2022-11-23T00:48:51;27.07;;;17.00;;
16800;SDS011;8518;53.236;10.384;2022-11-23T00:51:18;24.53;;;17.07;;
16800;SDS011;8518;53.236;10.384;2022-11-23T00:53:46;25.00;;;17.20;;
16800;SDS011;8518;53.236;10.384;2022-11-23T00:56:13;24.17;;;16.53;;
16800;SDS011;8518;53.236;10.384;2022-11-23T00:58:38;23.63;;;16.40;;
16800;SDS011;8518;53.236;10.384;2022-11-23T01:01:08;23.87;;;16.57;;
16800;SDS011;8518;53.236;10.384;2022-11-23T01:03:36;23.47;;;16.13;;
16800;SDS011;8518;53.236;10.384;2022-11-23T01:06:04;23.50;;;15.70;;
16800;SDS011;8518;53.236;10.384;2022-11-23T01:08:33;23.63;;;16.03;;
16800;SDS011;8518;53.236;10.384;2022-11-23T01:11:03;21.67;;;16.60;;
16800;SDS011;8518;53.236;10.384;2022-11-23T01:13:31;22.77;;;16.20;;
16800;SDS011;8518;53.236;10.384;2022-11-23T01:15:57;23.30;;;15.50;;
16800;SDS011;8518;53.236;10.384;2022-11-23T01:18:23;21.27;;;15.00;;
16800;SDS011;8518;53.236;10.384;2022-11-23T01:20:49;23.47;;;15.90;;
16800;SDS011;8518;53.236;10.384;2022-11-23T01:23:15;23.90;;;15.27;;
16800;SDS011;8518;53.236;10.384;2022-11-23T01:25:41;23.27;;;15.50;;
16800;SDS011;8518;53.236;10.384;2022-11-23T01:28:07;20.90;;;14.57;;
16800;SDS011;8518;53.236;10.384;2022-11-23T01:30:33;26.17;;;16.17;;
16800;SDS011;8518;53.236;10.384;2022-11-23T01:33:00;22.73;;;15.07;;
16800;SDS011;8518;53.236;10.384;2022-11-23T01:35:26;21.93;;;15.30;;
16800;SDS011;8518;53.236;10.384;2022-11-23T01:37:52;23.77;;;15.60;;
16800;SDS011;8518;53.236;10.384;2022-11-23T01:40:18;22.97;;;14.97;;
16800;SDS011;8518;53.236;10.384;2022-11-23T01:45:34;24.03;;;14.83;;
16800;SDS011;8518;53.236;10.384;2022-11-23T01:48:02;21.60;;;14.77;;
16800;SDS011;8518;53.236;10.384;2022-11-23T01:50:33;21.53;;;14.17;;
16800;SDS011;8518;53.236;10.384;2022-11-23T01:52:59;22.47;;;14.17;;
16800;SDS011;8518;53.236;10.384;2022-11-23T01:55:25;23.73;;;14.63;;
16800;SDS011;8518;53.236;10.384;2022-11-23T01:57:51;24.27;;;15.40;;
16800;SDS011;8518;53.236;10.384;2022-11-23T02:00:17;19.00;;;13.57;;
16800;SDS011;8518;53.236;10.384;2022-11-23T02:02:44;24.90;;;16.07;;
16800;SDS011;8518;53.236;10.384;2022-11-23T02:05:15;18.47;;;14.30;;
16800;SDS011;8518;53.236;10.384;2022-11-23T02:07:44;20.77;;;14.40;;
16800;SDS011;8518;53.236;10.384;2022-11-23T02:10:12;17.53;;;13.10;;
16800;SDS011;8518;53.236;10.384;2022-11-23T02:12:37;20.40;;;15.03;;
16800;SDS011;8518;53.236;10.384;2022-11-23T02:15:03;19.57;;;13.60;;
16800;SDS011;8518;53.236;10.384;2022-11-23T02:17:29;19.83;;;13.10;;
16800;SDS011;8518;53.236;10.384;2022-11-23T02:22:28;18.30;;;13.23;;
16800;SDS011;8518;53.236;10.384;2022-11-23T02:28:27;18.27;;;13.63;;
16800;SDS011;8518;53.236;10.384;2022-11-23T02:30:57;20.17;;;14.00;;
16800;SDS011;8518;53.236;10.384;2022-11-23T02:33:22;19.50;;;13.60;;
16800;SDS011;8518;53.236;10.384;2022-11-23T02:35:50;19.87;;;13.43;;
16800;SDS011;8518;53.236;10.384;2022-11-23T02:38:17;21.27;;;14.37;;
16800;SDS011;8518;53.236;10.384;2022-11-23T02:40:44;18.90;;;12.43;;
16800;SDS011;8518;53.236;10.384;2022-11-23T02:43:10;19.60;;;13.30;;
16800;SDS011;8518;53.236;10.384;2022-11-23T02:45:37;19.63;;;12.67;;
16800;SDS011;8518;53.236;10.384;2022-11-23T02:48:10;20.53;;;14.47;;
16800;SDS011;8518;53.236;10.384;2022-11-23T02:50:36;17.90;;;13.33;;
16800;SDS011;8518;53.236;10.384;2022-11-23T02:53:01;20.90;;;13.50;;
16800;SDS011;8518;53.236;10.384;2022-11-23T02:55:27;19.37;;;13.37;;
16800;SDS011;8518;53.236;10.384;2022-11-23T02:57:53;21.23;;;13.53;;
16800;SDS011;8518;53.236;10.384;2022-11-23T03:00:18;18.30;;;12.87;;
16800;SDS011;8518;53.236;10.384;2022-11-23T03:02:44;20.40;;;13.73;;
16800;SDS011;8518;53.236;10.384;2022-11-23T03:05:10;19.17;;;13.83;;
16800;SDS011;8518;53.236;10.384;2022-11-23T03:07:36;19.67;;;13.53;;
16800;SDS011;8518;53.236;10.384;2022-11-23T03:10:02;23.23;;;14.83;;
16800;SDS011;8518;53.236;10.384;2022-11-23T03:12:28;19.33;;;13.67;;
16800;SDS011;8518;53.236;10.384;2022-11-23T03:14:54;18.43;;;13.07;;
16800;SDS011;8518;53.236;10.384;2022-11-23T03:17:20;17.77;;;13.23;;
16800;SDS011;8518;53.236;10.384;2022-11-23T03:19:45;21.73;;;13.53;;
16800;SDS011;8518;53.236;10.384;2022-11-23T03:22:11;18.93;;;12.63;;
16800;SDS011;8518;53.236;10.384;2022-11-23T03:24:36;17.33;;;13.13;;
16800;SDS011;8518;53.236;10.384;2022-11-23T03:27:02;19.23;;;13.33;;
16800;SDS011;8518;53.236;10.384;2022-11-23T03:29:28;18.00;;;12.43;;
16800;SDS011;8518;53.236;10.384;2022-11-23T03:31:54;18.47;;;12.77;;
16800;SDS011;8518;53.236;10.384;2022-11-23T03:34:20;18.37;;;12.80;;
16800;SDS011;8518;53.236;10.384;2022-11-23T03:36:46;17.97;;;12.03;;
16800;SDS011;8518;53.236;10.384;2022-11-23T03:39:12;17.03;;;11.90;;
16800;SDS011;8518;53.236;10.384;2022-11-23T03:41:38;19.43;;;13.23;;
16800;SDS011;8518;53.236;10.384;2022-11-23T03:44:03;17.67;;;12.23;;
16800;SDS011;8518;53.236;10.384;2022-11-23T03:46:29;18.30;;;13.70;;
16800;SDS011;8518;53.236;10.384;2022-11-23T03:48:55;17.53;;;13.03;;
16800;SDS011;8518;53.236;10.384;2022-11-23T03:51:21;18.43;;;11.93;;
16800;SDS011;8518;53.236;10.384;2022-11-23T03:53:47;15.90;;;11.60;;
16800;SDS011;8518;53.236;10.384;2022-11-23T03:56:12;19.17;;;12.70;;
16800;SDS011;8518;53.236;10.384;2022-11-23T03:58:38;17.47;;;11.90;;
16800;SDS011;8518;53.236;10.384;2022-11-23T04:01:04;18.57;;;10.93;;
16800;SDS011;8518;53.236;10.384;2022-11-23T04:03:30;15.97;;;11.40;;
16800;SDS011;8518;53.236;10.384;2022-11-23T04:05:55;17.23;;;11.73;;
16800;SDS011;8518;53.236;10.384;2022-11-23T04:08:21;19.47;;;11.27;;
16800;SDS011;8518;53.236;10.384;2022-11-23T04:10:47;18.57;;;11.87;;
16800;SDS011;8518;53.236;10.384;2022-11-23T04:13:12;16.60;;;11.03;;
16800;SDS011;8518;53.236;10.384;2022-11-23T04:15:38;15.53;;;11.43;;
16800;SDS011;8518;53.236;10.384;2022-11-23T04:18:03;17.03;;;11.10;;
16800;SDS011;8518;53.236;10.384;2022-11-23T04:20:29;19.00;;;11.53;;
16800;SDS011;8518;53.236;10.384;2022-11-23T04:22:55;14.53;;;11.80;;
16800;SDS011;8518;53.236;10.384;2022-11-23T04:25:20;16.07;;;11.23;;
16800;SDS011;8518;53.236;10.384;2022-11-23T04:27:46;16.83;;;11.00;;
16800;SDS011;8518;53.236;10.384;2022-11-23T04:30:12;15.20;;;10.80;;
16800;SDS011;8518;53.236;10.384;2022-11-23T04:32:38;17.23;;;10.83;;
16800;SDS011;8518;53.236;10.384;2022-11-23T04:35:04;19.70;;;11.57;;
16800;SDS011;8518;53.236;10.384;2022-11-23T04:37:29;19.53;;;11.33;;
16800;SDS011;8518;53.236;10.384;2022-11-23T04:39:55;17.30;;;10.47;;
16800;SDS011;8518;53.236;10.384;2022-11-23T04:42:21;14.77;;;10.07;;
16800;SDS011;8518;53.236;10.384;2022-11-23T04:44:47;17.47;;;11.10;;
16800;SDS011;8518;53.236;10.384;2022-11-23T04:47:12;16.23;;;11.47;;
16800;SDS011;8518;53.236;10.384;2022-11-23T04:49:38;14.73;;;10.43;;
16800;SDS011;8518;53.236;10.384;2022-11-23T04:52:04;12.53;;;9.60;;
16800;SDS011;8518;53.236;10.384;2022-11-23T04:54:30;13.40;;;9.87;;
16800;SDS011;8518;53.236;10.384;2022-11-23T04:56:56;15.63;;;10.60;;
16800;SDS011;8518;53.236;10.384;2022-11-23T04:59:21;13.33;;;10.10;;
16800;SDS011;8518;53.236;10.384;2022-11-23T05:01:50;15.23;;;9.73;;
16800;SDS011;8518;53.236;10.384;2022-11-23T05:04:16;14.90;;;9.80;;
16800;SDS011;8518;53.236;10.384;2022-11-23T05:06:43;16.13;;;9.53;;
16800;SDS011;8518;53.236;10.384;2022-11-23T05:09:09;15.37;;;9.87;;
16800;SDS011;8518;53.236;10.384;2022-11-23T05:11:35;13.20;;;9.70;;
16800;SDS011;8518;53.236;10.384;2022-11-23T05:14:00;18.40;;;10.47;;
16800;SDS011;8518;53.236;10.384;2022-11-23T05:16:26;14.73;;;10.17;;
16800;SDS011;8518;53.236;10.384;2022-11-23T05:18:52;14.43;;;9.73;;
16800;SDS011;8518;53.236;10.384;2022-11-23T05:21:17;12.80;;;9.27;;
16800;SDS011;8518;53.236;10.384;2022-11-23T05:23:43;15.80;;;10.13;;
16800;SDS011;8518;53.236;10.384;2022-11-23T05:26:08;12.13;;;9.20;;
16800;SDS011;8518;53.236;10.384;2022-11-23T05:28:34;18.40;;;9.77;;
16800;SDS011;8518;53.236;10.384;2022-11-23T05:31:01;19.10;;;9.83;;
16800;SDS011;8518;53.236;10.384;2022-11-23T05:33:28;15.57;;;9.63;;
16800;SDS011;8518;53.236;10.384;2022-11-23T05:35:53;18.03;;;9.80;;
16800;SDS011;8518;53.236;10.384;2022-11-23T05:38:19;16.40;;;10.27;;
16800;SDS011;8518;53.236;10.384;2022-11-23T05:40:44;12.93;;;9.57;;
16800;SDS011;8518;53.236;10.384;2022-11-23T05:43:10;16.43;;;9.80;;
16800;SDS011;8518;53.236;10.384;2022-11-23T05:45:36;14.83;;;9.70;;
16800;SDS011;8518;53.236;10.384;2022-11-23T05:48:02;12.43;;;9.10;;
16800;SDS011;8518;53.236;10.384;2022-11-23T05:50:28;14.23;;;9.77;;
16800;SDS011;8518;53.236;10.384;2022-11-23T05:52:57;13.33;;;9.27;;
16800;SDS011;8518;53.236;10.384;2022-11-23T05:55:24;14.10;;;9.17;;
16800;SDS011;8518;53.236;10.384;2022-11-23T05:57:50;13.50;;;9.77;;
16800;SDS011;8518;53.236;10.384;2022-11-23T06:00:16;12.60;;;9.33;;
16800;SDS011;8518;53.236;10.384;2022-11-23T06:02:42;11.47;;;8.67;;
16800;SDS011;8518;53.236;10.384;2022-11-23T06:05:08;14.40;;;9.43;;
16800;SDS011;8518;53.236;10.384;2022-11-23T06:07:34;13.43;;;9.93;;
16800;SDS011;8518;53.236;10.384;2022-11-23T06:10:01;10.53;;;8.73;;
16800;SDS011;8518;53.236;10.384;2022-11-23T06:12:28;15.33;;;9.97;;
16800;SDS011;8518;53.236;10.384;2022-11-23T06:14:54;12.60;;;9.03;;
16800;SDS011;8518;53.236;10.384;2022-11-23T06:17:20;11.67;;;8.53;;
16800;SDS011;8518;53.236;10.384;2022-11-23T06:19:46;13.60;;;9.23;;
16800;SDS011;8518;53.236;10.384;2022-11-23T06:22:11;15.13;;;8.90;;
16800;SDS011;8518;53.236;10.384;2022-11-23T06:24:37;13.97;;;9.40;;
16800;SDS011;8518;53.236;10.384;2022-11-23T06:27:03;12.17;;;8.90;;
16800;SDS011;8518;53.236;10.384;2022-11-23T06:29:29;13.17;;;9.50;;
16800;SDS011;8518;53.236;10.384;2022-11-23T06:31:54;15.13;;;9.47;;
16800;SDS011;8518;53.236;10.384;2022-11-23T06:34:20;12.57;;;9.33;;
16800;SDS011;8518;53.236;10.384;2022-11-23T06:36:46;14.00;;;9.73;;
16800;SDS011;8518;53.236;10.384;2022-11-23T06:39:11;16.23;;;10.10;;
16800;SDS011;8518;53.236;10.384;2022-11-23T06:41:37;16.53;;;9.93;;
16800;SDS011;8518;53.236;10.384;2022-11-23T06:44:03;14.10;;;9.47;;
16800;SDS011;8518;53.236;10.384;2022-11-23T06:46:29;15.10;;;9.73;;
16800;SDS011;8518;53.236;10.384;2022-11-23T06:48:55;15.37;;;10.13;;
16800;SDS011;8518;53.236;10.384;2022-11-23T06:51:21;12.73;;;9.60;;
16800;SDS011;8518;53.236;10.384;2022-11-23T06:53:47;12.40;;;9.87;;
16800;SDS011;8518;53.236;10.384;2022-11-23T06:56:12;17.20;;;10.37;;
16800;SDS011;8518;53.236;10.384;2022-11-23T06:58:38;16.17;;;9.80;;
16800;SDS011;8518;53.236;10.384;2022-11-23T07:01:08;16.83;;;10.23;;
16800;SDS011;8518;53.236;10.384;2022-11-23T07:03:34;15.10;;;10.10;;
16800;SDS011;8518;53.236;10.384;2022-11-23T07:06:07;15.13;;;10.07;;
16800;SDS011;8518;53.236;10.384;2022-11-23T07:08:34;14.77;;;10.57;;
16800;SDS011;8518;53.236;10.384;2022-11-23T07:11:01;14.87;;;9.53;;
16800;SDS011;8518;53.236;10.384;2022-11-23T07:13:27;13.53;;;10.30;;
16800;SDS011;8518;53.236;10.384;2022-11-23T07:15:53;14.10;;;10.27;;
16800;SDS011;8518;53.236;10.384;2022-11-23T07:18:20;19.23;;;11.00;;
16800;SDS011;8518;53.236;10.384;2022-11-23T07:20:46;15.13;;;10.53;;
16800;SDS011;8518;53.236;10.384;2022-11-23T07:23:12;15.27;;;10.77;;
16800;SDS011;8518;53.236;10.384;2022-11-23T07:25:37;15.63;;;10.03;;
16800;SDS011;8518;53.236;10.384;2022-11-23T07:28:04;16.67;;;11.37;;
16800;SDS011;8518;53.236;10.384;2022-11-23T07:30:31;17.27;;;10.03;;
16800;SDS011;8518;53.236;10.384;2022-11-23T07:33:01;16.40;;;10.43;;
16800;SDS011;8518;53.236;10.384;2022-11-23T07:35:28;12.80;;;9.40;;
16800;SDS011;8518;53.236;10.384;2022-11-23T07:37:55;17.17;;;10.97;;
16800;SDS011;8518;53.236;10.384;2022-11-23T07:40:21;16.10;;;10.00;;
16800;SDS011;8518;53.236;10.384;2022-11-23T07:42:47;15.93;;;10.20;;
16800;SDS011;8518;53.236;10.384;2022-11-23T07:45:12;12.93;;;9.83;;
16800;SDS011;8518;53.236;10.384;2022-11-23T07:47:38;14.03;;;10.20;;
16800;SDS011;8518;53.236;10.384;2022-11-23T07:50:07;14.83;;;10.13;;
16800;SDS011;8518;53.236;10.384;2022-11-23T07:52:35;15.00;;;10.13;;
16800;SDS011;8518;53.236;10.384;2022-11-23T07:55:01;13.53;;;10.13;;
16800;SDS011;8518;53.236;10.384;2022-11-23T07:57:27;13.87;;;9.87;;
16800;SDS011;8518;53.236;10.384;2022-11-23T07:59:53;14.13;;;9.67;;
16800;SDS011;8518;53.236;10.384;2022-11-23T08:02:19;14.07;;;9.30;;
16800;SDS011;8518;53.236;10.384;2022-11-23T08:04:45;13.40;;;9.27;;
16800;SDS011;8518;53.236;10.384;2022-11-23T08:07:11;11.83;;;9.50;;
16800;SDS011;8518;53.236;10.384;2022-11-23T08:09:36;14.03;;;9.43;;
16800;SDS011;8518;53.236;10.384;2022-11-23T08:12:02;13.53;;;9.60;;
16800;SDS011;8518;53.236;10.384;2022-11-23T08:14:28;14.17;;;9.87;;
16800;SDS011;8518;53.236;10.384;2022-11-23T08:16:53;14.37;;;9.40;;
16800;SDS011;8518;53.236;10.384;2022-11-23T08:19:19;12.90;;;9.37;;
16800;SDS011;8518;53.236;10.384;2022-11-23T08:21:45;11.97;;;8.03;;
16800;SDS011;8518;53.236;10.384;2022-11-23T08:24:10;16.47;;;9.30;;
16800;SDS011;8518;53.236;10.384;2022-11-23T08:26:36;12.30;;;8.70;;
16800;SDS011;8518;53.236;10.384;2022-11-23T08:29:02;12.20;;;8.60;;
16800;SDS011;8518;53.236;10.384;2022-11-23T08:31:29;13.47;;;8.27;;
16800;SDS011;8518;53.236;10.384;2022-11-23T08:33:54;13.40;;;8.73;;
16800;SDS011;8518;53.236;10.384;2022-11-23T08:36:20;12.13;;;7.93;;
16800;SDS011;8518;53.236;10.384;2022-11-23T08:38:46;12.70;;;8.27;;
16800;SDS011;8518;53.236;10.384;2022-11-23T08:41:15;12.37;;;8.83;;
16800;SDS011;8518;53.236;10.384;2022-11-23T08:43:44;16.37;;;8.67;;
16800;SDS011;8518;53.236;10.384;2022-11-23T08:46:10;13.13;;;8.40;;
16800;SDS011;8518;53.236;10.384;2022-11-23T08:48:36;11.03;;;7.10;;
16800;SDS011;8518;53.236;10.384;2022-11-23T08:51:02;10.33;;;7.80;;
16800;SDS011;8518;53.236;10.384;2022-11-23T08:53:28;10.73;;;7.60;;
16800;SDS011;8518;53.236;10.384;2022-11-23T08:55:53;11.90;;;7.53;;
16800;SDS011;8518;53.236;10.384;2022-11-23T08:58:19;10.97;;;7.37;;
16800;SDS011;8518;53.236;10.384;2022-11-23T09:00:45;8.60;;;6.37;;
16800;SDS011;8518;53.236;10.384;2022-11-23T09:03:10;9.87;;;5.53;;
16800;SDS011;8518;53.236;10.384;2022-11-23T09:05:36;7.37;;;5.23;;
16800;SDS011;8518;53.236;10.384;2022-11-23T09:08:03;8.30;;;4.67;;
16800;SDS011;8518;53.236;10.384;2022-11-23T09:10:29;6.77;;;4.20;;
16800;SDS011;8518;53.236;10.384;2022-11-23T09:12:55;7.83;;;4.60;;
16800;SDS011;8518;53.236;10.384;2022-11-23T09:15:20;9.30;;;4.50;;
16800;SDS011;8518;53.236;10.384;2022-11-23T09:17:46;7.40;;;4.10;;
16800;SDS011;8518;53.236;10.384;2022-11-23T09:20:12;8.27;;;4.00;;
16800;SDS011;8518;53.236;10.384;2022-11-23T09:22:38;5.50;;;3.73;;
16800;SDS011;8518;53.236;10.384;2022-11-23T09:25:03;6.97;;;4.30;;
16800;SDS011;8518;53.236;10.384;2022-11-23T09:27:30;7.07;;;3.50;;
16800;SDS011;8518;53.236;10.384;2022-11-23T09:29:57;5.93;;;3.47;;
16800;SDS011;8518;53.236;10.384;2022-11-23T09:32:22;6.90;;;3.73;;
16800;SDS011;8518;53.236;10.384;2022-11-23T09:34:48;5.07;;;3.60;;
16800;SDS011;8518;53.236;10.384;2022-11-23T09:37:14;4.87;;;3.20;;
16800;SDS011;8518;53.236;10.384;2022-11-23T09:39:39;5.30;;;3.60;;
16800;SDS011;8518;53.236;10.384;2022-11-23T09:45:16;5.90;;;3.63;;
16800;SDS011;8518;53.236;10.384;2022-11-23T09:50:48;7.97;;;4.40;;
16800;SDS011;8518;53.236;10.384;2022-11-23T09:53:36;7.63;;;4.03;;
16800;SDS011;8518;53.236;10.384;2022-11-23T09:56:19;5.97;;;3.40;;
16800;SDS011;8518;53.236;10.384;2022-11-23T09:58:48;6.83;;;3.13;;
16800;SDS011;8518;53.236;10.384;2022-11-23T10:01:19;5.10;;;2.90;;
16800;SDS011;8518;53.236;10.384;2022-11-23T10:03:45;4.97;;;2.97;;
16800;SDS011;8518;53.236;10.384;2022-11-23T10:08:50;7.70;;;3.33;;
16800;SDS011;8518;53.236;10.384;2022-11-23T10:14:15;7.47;;;3.50;;
16800;SDS011;8518;53.236;10.384;2022-11-23T10:17:01;4.53;;;2.60;;
16800;SDS011;8518;53.236;10.384;2022-11-23T10:25:25;4.63;;;2.90;;
16800;SDS011;8518;53.236;10.384;2022-11-23T10:27:57;6.70;;;2.73;;
16800;SDS011;8518;53.236;10.384;2022-11-23T10:30:27;4.80;;;2.83;;
16800;SDS011;8518;53.236;10.384;2022-11-23T10:32:59;5.03;;;3.13;;
16800;SDS011;8518;53.236;10.384;2022-11-23T10:35:33;6.80;;;2.97;;
16800;SDS011;8518;53.236;10.384;2022-11-23T10:38:01;5.30;;;3.07;;
16800;SDS011;8518;53.236;10.384;2022-11-23T10:40:38;5.73;;;2.77;;
16800;SDS011;8518;53.236;10.384;2022-11-23T10:43:13;3.93;;;3.03;;
16800;SDS011;8518;53.236;10.384;2022-11-23T10:45:48;3.83;;;2.77;;
16800;SDS011;8518;53.236;10.384;2022-11-23T10:48:29;5.77;;;2.93;;
16800;SDS011;8518;53.236;10.384;2022-11-23T10:51:13;4.57;;;2.70;;
16800;SDS011;8518;53.236;10.384;2022-11-23T10:54:01;5.03;;;3.20;;
16800;SDS011;8518;53.236;10.384;2022-11-23T10:56:28;6.77;;;3.70;;
16800;SDS011;8518;53.236;10.384;2022-11-23T10:58:55;6.87;;;3.43;;
16800;SDS011;8518;53.236;10.384;2022-11-23T11:01:23;7.80;;;3.50;;
16800;SDS011;8518;53.236;10.384;2022-11-23T11:03:51;6.43;;;3.60;;
16800;SDS011;8518;53.236;10.384;2022-11-23T11:06:22;6.77;;;3.97;;
16800;SDS011;8518;53.236;10.384;2022-11-23T11:08:53;6.70;;;3.57;;
16800;SDS011;8518;53.236;10.384;2022-11-23T11:14:00;11.03;;;4.20;;
16800;SDS011;8518;53.236;10.384;2022-11-23T11:16:46;6.97;;;3.77;;
16800;SDS011;8518;53.236;10.384;2022-11-23T11:19:27;6.97;;;3.30;;
16800;SDS011;8518;53.236;10.384;2022-11-23T11:21:53;8.37;;;3.70;;
16800;SDS011;8518;53.236;10.384;2022-11-23T11:24:20;5.93;;;3.40;;
16800;SDS011;8518;53.236;10.384;2022-11-23T11:26:58;7.00;;;3.40;;
16800;SDS011;8518;53.236;10.384;2022-11-23T11:32:00;7.17;;;3.67;;
16800;SDS011;8518;53.236;10.384;2022-11-23T11:40:02;6.10;;;3.40;;
16800;SDS011;8518;53.236;10.384;2022-11-23T11:42:42;7.60;;;3.63;;
16800;SDS011;8518;53.236;10.384;2022-11-23T11:45:16;6.13;;;3.40;;
16800;SDS011;8518;53.236;10.384;2022-11-23T11:48:00;6.77;;;3.60;;
16800;SDS011;8518;53.236;10.384;2022-11-23T11:50:32;6.67;;;3.30;;
16800;SDS011;8518;53.236;10.384;2022-11-23T11:53:06;8.33;;;3.27;;
16800;SDS011;8518;53.236;10.384;2022-11-23T11:55:47;7.73;;;3.20;;
16800;SDS011;8518;53.236;10.384;2022-11-23T11:58:24;5.67;;;3.20;;
16800;SDS011;8518;53.236;10.384;2022-11-23T12:00:57;8.43;;;3.80;;
16800;SDS011;8518;53.236;10.384;2022-11-23T12:06:12;5.37;;;3.03;;
16800;SDS011;8518;53.236;10.384;2022-11-23T12:09:08;7.10;;;3.10;;
16800;SDS011;8518;53.236;10.384;2022-11-23T12:11:35;5.43;;;3.00;;
16800;SDS011;8518;53.236;10.384;2022-11-23T12:14:02;6.93;;;3.40;;
16800;SDS011;8518;53.236;10.384;2022-11-23T12:16:43;7.93;;;3.20;;
16800;SDS011;8518;53.236;10.384;2022-11-23T12:27:21;6.87;;;3.30;;
16800;SDS011;8518;53.236;10.384;2022-11-23T12:35:45;5.33;;;2.70;;
16800;SDS011;8518;53.236;10.384;2022-11-23T12:41:28;5.43;;;2.60;;
16800;SDS011;8518;53.236;10.384;2022-11-23T12:44:09;4.27;;;2.70;;
16800;SDS011;8518;53.236;10.384;2022-11-23T12:47:00;3.93;;;2.30;;
16800;SDS011;8518;53.236;10.384;2022-11-23T12:50:36;5.83;;;2.50;;
16800;SDS011;8518;53.236;10.384;2022-11-23T12:58:07;4.57;;;2.70;;
16800;SDS011;8518;53.236;10.384;2022-11-23T13:00:42;7.07;;;3.00;;
16800;SDS011;8518;53.236;10.384;2022-11-23T13:11:45;4.93;;;2.47;;
16800;SDS011;8518;53.236;10.384;2022-11-23T13:22:15;3.43;;;2.23;;
16800;SDS011;8518;53.236;10.384;2022-11-23T13:40:43;6.27;;;2.67;;
16800;SDS011;8518;53.236;10.384;2022-11-23T13:43:20;5.10;;;2.77;;
16800;SDS011;8518;53.236;10.384;2022-11-23T13:48:46;7.20;;;2.70;;
16800;SDS011;8518;53.236;10.384;2022-11-23T13:51:20;4.50;;;2.27;;
16800;SDS011;8518;53.236;10.384;2022-11-23T13:54:30;4.07;;;2.50;;
16800;SDS011;8518;53.236;10.384;2022-11-23T13:56:51;5.00;;;2.40;;
16800;SDS011;8518;53.236;10.384;2022-11-23T14:04:27;7.60;;;3.10;;
16800;SDS011;8518;53.236;10.384;2022-11-23T14:07:04;6.87;;;3.27;;
16800;SDS011;8518;53.236;10.384;2022-11-23T14:15:09;6.33;;;2.53;;
16800;SDS011;8518;53.236;10.384;2022-11-23T14:25:38;6.93;;;2.83;;
16800;SDS011;8518;53.236;10.384;2022-11-23T14:31:36;4.80;;;2.83;;
16800;SDS011;8518;53.236;10.384;2022-11-23T14:36:56;6.07;;;2.93;;
16800;SDS011;8518;53.236;10.384;2022-11-23T14:42:37;6.43;;;2.60;;
16800;SDS011;8518;53.236;10.384;2022-11-23T14:45:10;6.67;;;2.50;;
16800;SDS011;8518;53.236;10.384;2022-11-23T14:47:39;4.13;;;2.37;;
16800;SDS011;8518;53.236;10.384;2022-11-23T14:50:15;4.77;;;2.60;;
16800;SDS011;8518;53.236;10.384;2022-11-23T14:52:45;6.27;;;3.00;;
16800;SDS011;8518;53.236;10.384;2022-11-23T14:55:16;6.43;;;2.63;;
16800;SDS011;8518;53.236;10.384;2022-11-23T14:57:45;6.27;;;3.10;;
16800;SDS011;8518;53.236;10.384;2022-11-23T15:00:23;3.80;;;2.73;;
16800;SDS011;8518;53.236;10.384;2022-11-23T15:02:53;8.13;;;3.10;;
16800;SDS011;8518;53.236;10.384;2022-11-23T15:05:28;7.00;;;2.90;;
16800;SDS011;8518;53.236;10.384;2022-11-23T15:08:15;7.43;;;3.37;;
16800;SDS011;8518;53.236;10.384;2022-11-23T15:13:29;9.33;;;3.70;;
16800;SDS011;8518;53.236;10.384;2022-11-23T15:15:56;8.10;;;3.93;;
16800;SDS011;8518;53.236;10.384;2022-11-23T15:18:32;6.20;;;3.70;;
16800;SDS011;8518;53.236;10.384;2022-11-23T15:21:02;9.87;;;4.33;;
16800;SDS011;8518;53.236;10.384;2022-11-23T15:23:39;7.80;;;4.67;;
16800;SDS011;8518;53.236;10.384;2022-11-23T15:26:13;11.10;;;6.87;;
16800;SDS011;8518;53.236;10.384;2022-11-23T15:28:41;8.03;;;4.30;;
16800;SDS011;8518;53.236;10.384;2022-11-23T15:31:17;10.23;;;6.00;;
16800;SDS011;8518;53.236;10.384;2022-11-23T15:33:46;10.07;;;4.33;;
16800;SDS011;8518;53.236;10.384;2022-11-23T15:36:15;11.87;;;5.60;;
16800;SDS011;8518;53.236;10.384;2022-11-23T15:38:42;9.20;;;5.63;;
16800;SDS011;8518;53.236;10.384;2022-11-23T15:41:08;8.90;;;5.33;;
16800;SDS011;8518;53.236;10.384;2022-11-23T15:43:34;11.27;;;6.23;;
16800;SDS011;8518;53.236;10.384;2022-11-23T15:46:02;10.70;;;5.97;;
16800;SDS011;8518;53.236;10.384;2022-11-23T15:48:30;9.40;;;5.50;;
16800;SDS011;8518;53.236;10.384;2022-11-23T15:51:04;7.97;;;5.17;;
16800;SDS011;8518;53.236;10.384;2022-11-23T15:53:48;9.23;;;4.57;;
16800;SDS011;8518;53.236;10.384;2022-11-23T15:56:26;11.63;;;5.00;;
16800;SDS011;8518;53.236;10.384;2022-11-23T15:59:00;8.77;;;4.33;;
16800;SDS011;8518;53.236;10.384;2022-11-23T16:01:28;8.40;;;4.03;;
16800;SDS011;8518;53.236;10.384;2022-11-23T16:03:58;9.10;;;4.50;;
16800;SDS011;8518;53.236;10.384;2022-11-23T16:06:40;10.17;;;5.07;;
16800;SDS011;8518;53.236;10.384;2022-11-23T16:12:19;9.40;;;4.40;;
16800;SDS011;8518;53.236;10.384;2022-11-23T16:14:45;8.57;;;4.40;;
16800;SDS011;8518;53.236;10.384;2022-11-23T16:17:16;7.70;;;4.93;;
16800;SDS011;8518;53.236;10.384;2022-11-23T16:19:53;11.23;;;5.50;;
16800;SDS011;8518;53.236;10.384;2022-11-23T16:22:24;10.87;;;5.37;;
16800;SDS011;8518;53.236;10.384;2022-11-23T16:24:57;8.63;;;4.63;;
16800;SDS011;8518;53.236;10.384;2022-11-23T16:27:31;9.50;;;5.43;;
16800;SDS011;8518;53.236;10.384;2022-11-23T16:29:57;9.60;;;5.17;;
16800;SDS011;8518;53.236;10.384;2022-11-23T16:34:50;10.97;;;5.00;;
16800;SDS011;8518;53.236;10.384;2022-11-23T16:37:16;6.73;;;4.00;;
16800;SDS011;8518;53.236;10.384;2022-11-23T16:39:42;7.73;;;4.73;;
16800;SDS011;8518;53.236;10.384;2022-11-23T16:42:10;10.53;;;4.40;;
16800;SDS011;8518;53.236;10.384;2022-11-23T16:44:41;9.37;;;5.40;;
16800;SDS011;8518;53.236;10.384;2022-11-23T16:47:25;8.97;;;5.47;;
16800;SDS011;8518;53.236;10.384;2022-11-23T16:49:52;12.87;;;5.50;;
16800;SDS011;8518;53.236;10.384;2022-11-23T16:52:19;12.57;;;5.37;;
16800;SDS011;8518;53.236;10.384;2022-11-23T16:54:46;11.40;;;5.23;;
16800;SDS011;8518;53.236;10.384;2022-11-23T16:57:28;11.57;;;5.77;;
16800;SDS011;8518;53.236;10.384;2022-11-23T16:59:57;8.63;;;5.37;;